Terminal Aerodrome Forecast
Issued by NWS

Home | Current Version | Previous Version | Text Only | Print | Product List | Glossary On
Versions: 1 2 3 4 5 6 7 8 9 10 11 12 13 14 15 16 17 18 19 20 21 22
000
FTUS43 KAPX 031120
TAFMBL
TAF
KMBL 031120Z 0312/0412 VRB03KT 5SM -TSRA BR SCT015 BKN040CB OVC120
     FM031300 16005KT P6SM VCSH BKN035 BKN120
     FM031900 28006KT P6SM VCSH BKN035
     FM040000 10002KT 6SM BR SCT040 BKN080
      AMD LTD TO CLD VIS AND WIND=

USA.gov is the U.S. government's official web portal to all federal, state and local government web resources and services.